Pierce, Texas
Current Conditions -  °F | °C
As of 8:15 AM on Thursday 29 Jan 2015 (Local Time) from KARM Reporting Station
Moderate Fog Moderate Fog  
Wind Chill: 55°   Ceiling: 100
Heat Index: 55°   Visibility: 0.25mi
Dew Point: 55°   Wind: 0mph
Humidity: 98%   Direction: NA
Pressure: 30.23"   Gusts: NA
Location:  29.24°N, 96.2°W
Report Text: KARM 291415Z AUTO 00000KT 1/4SM FG OVC001 13/13 A3023 RMK AO2 T01300127
Loading
Personal Weather Stations






























Interactive Weather Map New forecast layout! Learn more

10-Day Weather Forecast

Advertisements
Track Severe Weather on mobile